createdAt,value
2018-10-18T00:00:26.070Z,101308.98
2018-10-18T00:02:59.767Z,101301.08
2018-10-18T00:05:33.582Z,101302.41
2018-10-18T00:08:06.833Z,101300.52
2018-10-18T00:10:40.403Z,101304.57
2018-10-18T00:13:19.490Z,101305.63
2018-10-18T00:15:53.973Z,101310.36
2018-10-18T00:18:27.266Z,101308.28
2018-10-18T00:21:00.117Z,101310.61
2018-10-18T00:23:37.712Z,101308.08
2018-10-18T00:26:12.114Z,101309.09
2018-10-18T00:28:45.840Z,101305.45
2018-10-18T00:31:19.359Z,101308.22
2018-10-18T00:33:52.990Z,101311.05
2018-10-18T00:36:27.872Z,101311.34
2018-10-18T00:39:01.718Z,101318.39
2018-10-18T00:41:36.149Z,101310.20
2018-10-18T00:44:10.534Z,101310.75
2018-10-18T00:46:44.995Z,101310.12
2018-10-18T00:49:19.280Z,101312.96
2018-10-18T00:51:53.620Z,101323.78
2018-10-18T00:54:26.668Z,101320.39
2018-10-18T00:57:00.528Z,101326.94
2018-10-18T00:59:34.935Z,101327.42
2018-10-18T01:02:14.327Z,101332.13
2018-10-18T01:04:48.318Z,101335.36
2018-10-18T01:07:22.332Z,101332.04
2018-10-18T01:10:06.033Z,101338.13
2018-10-18T01:12:39.776Z,101342.59
2018-10-18T01:15:15.777Z,101348.03
2018-10-18T01:17:49.562Z,101344.95
2018-10-18T01:20:23.223Z,101344.71
2018-10-18T01:22:56.937Z,101349.36
2018-10-18T01:25:30.631Z,101352.13
2018-10-18T01:28:04.436Z,101354.91
2018-10-18T01:30:38.810Z,101359.86
2018-10-18T01:33:11.876Z,101357.78
2018-10-18T01:35:45.192Z,101356.46
2018-10-18T01:38:19.479Z,101362.94
2018-10-18T01:40:53.096Z,101366.73
2018-10-18T01:43:26.617Z,101370.84
2018-10-18T01:46:00.427Z,101371.09
2018-10-18T01:48:34.396Z,101374.44
2018-10-18T01:51:10.309Z,101375.05
2018-10-18T01:53:43.959Z,101375.20
2018-10-18T01:56:23.296Z,101372.73
2018-10-18T01:58:57.463Z,101375.05
2018-10-18T02:01:33.505Z,101370.23
2018-10-18T02:04:06.700Z,101375.66
2018-10-18T02:06:40.004Z,101373.13
2018-10-18T02:09:15.203Z,101375.45
2018-10-18T02:11:48.876Z,101375.36
2018-10-18T02:14:22.748Z,101373.34
2018-10-18T02:16:56.944Z,101376.58
2018-10-18T02:19:30.696Z,101379.35
2018-10-18T02:22:05.085Z,101373.27
2018-10-18T02:24:38.699Z,101375.20
2018-10-18T02:27:12.631Z,101375.98
2018-10-18T02:29:46.527Z,101378.55
2018-10-18T02:32:23.199Z,101376.08
2018-10-18T02:34:57.196Z,101370.20
2018-10-18T02:37:32.307Z,101370.11
2018-10-18T02:40:06.365Z,101373.75
2018-10-18T02:42:40.089Z,101370.05
2018-10-18T02:45:14.596Z,101381.17
2018-10-18T02:47:48.326Z,101382.03
2018-10-18T02:50:23.963Z,101386.83
2018-10-18T02:52:57.672Z,101392.80
2018-10-18T02:55:31.239Z,101396.95
2018-10-18T02:58:05.774Z,101398.06
2018-10-18T03:00:42.255Z,101396.50
2018-10-18T03:03:18.399Z,101395.70
2018-10-18T03:05:52.379Z,101393.93
2018-10-18T03:08:26.188Z,101392.21
2018-10-18T03:10:59.564Z,101398.94
2018-10-18T03:13:33.370Z,101394.47
2018-10-18T03:16:12.230Z,101399.64
2018-10-18T03:18:47.322Z,101398.42
2018-10-18T03:21:21.025Z,101398.78
2018-10-18T03:23:55.245Z,101395.44
2018-10-18T03:26:29.897Z,101405.19
2018-10-18T03:29:04.135Z,101398.00
2018-10-18T03:31:37.909Z,101397.34
2018-10-18T03:34:14.040Z,101401.62
2018-10-18T03:36:51.009Z,101404.94
2018-10-18T03:39:25.570Z,101408.75
2018-10-18T03:41:59.324Z,101408.08
2018-10-18T03:44:35.078Z,101409.70
2018-10-18T03:47:08.830Z,101411.02
2018-10-18T03:49:42.743Z,101410.26
2018-10-18T03:52:16.006Z,101407.99
2018-10-18T03:54:50.138Z,101407.08
2018-10-18T03:57:24.568Z,101409.91
2018-10-18T03:59:58.501Z,101418.61
2018-10-18T04:02:30.417Z,101419.52
2018-10-18T04:05:04.077Z,101424.23
2018-10-18T04:07:38.562Z,101427.11
2018-10-18T04:10:10.971Z,101426.39
2018-10-18T04:12:44.149Z,101428.72
2018-10-18T04:15:17.116Z,101424.61
2018-10-18T04:17:49.636Z,101424.61
2018-10-18T04:20:22.026Z,101422.69
2018-10-18T04:22:57.305Z,101420.83
2018-10-18T04:25:30.151Z,101418.35
2018-10-18T04:28:06.185Z,101423.46
2018-10-18T04:30:38.997Z,101422.54
2018-10-18T04:33:11.347Z,101423.31
2018-10-18T04:35:43.987Z,101418.97
2018-10-18T04:38:16.057Z,101415.02
2018-10-18T04:40:48.729Z,101422.70
2018-10-18T04:43:21.272Z,101422.16
2018-10-18T04:45:53.726Z,101427.88
2018-10-18T04:48:26.922Z,101427.20
2018-10-18T04:51:00.856Z,101429.13
2018-10-18T04:53:33.666Z,101430.45
2018-10-18T04:56:06.123Z,101432.83
2018-10-18T04:58:38.347Z,101431.83
2018-10-18T05:01:10.983Z,101433.79
2018-10-18T05:03:46.036Z,101439.72
2018-10-18T05:06:18.390Z,101437.18
2018-10-18T05:08:50.700Z,101432.98
2018-10-18T05:11:22.655Z,101431.97
2018-10-18T05:13:55.212Z,101428.18
2018-10-18T05:16:27.851Z,101425.25
2018-10-18T05:19:00.346Z,101427.42
2018-10-18T05:21:33.039Z,101434.45
2018-10-18T05:24:05.656Z,101436.57
2018-10-18T05:26:37.768Z,101426.20
2018-10-18T05:29:10.126Z,101433.84
2018-10-18T05:31:42.445Z,101437.34
2018-10-18T05:34:16.566Z,101440.06
2018-10-18T05:36:48.444Z,101443.21
2018-10-18T05:39:19.081Z,101446.02
2018-10-18T05:41:51.590Z,101451.64
2018-10-18T05:44:23.357Z,101450.87
2018-10-18T05:46:55.611Z,101456.68
2018-10-18T05:49:27.590Z,101459.46
2018-10-18T05:51:59.573Z,101464.17
2018-10-18T05:54:33.708Z,101470.38
2018-10-18T05:57:06.280Z,101462.94
2018-10-18T05:59:38.950Z,101469.91
2018-10-18T06:02:12.090Z,101475.47
2018-10-18T06:04:44.394Z,101468.36
2018-10-18T06:07:16.258Z,101469.21
2018-10-18T06:09:51.567Z,101467.89
2018-10-18T06:12:23.454Z,101471.05
2018-10-18T06:14:55.581Z,101470.36
2018-10-18T06:17:28.350Z,101475.02
2018-10-18T06:20:00.670Z,101474.61
2018-10-18T06:22:32.815Z,101474.46
2018-10-18T06:25:04.878Z,101474.31
2018-10-18T06:27:37.069Z,101473.40
2018-10-18T06:30:12.142Z,101476.43
2018-10-18T06:32:45.019Z,101475.33
2018-10-18T06:36:18.339Z,101473.77
2018-10-18T06:38:59.476Z,101478.11
2018-10-18T06:41:35.018Z,101478.97
2018-10-18T06:44:07.278Z,101485.45
2018-10-18T06:46:40.043Z,101489.09
2018-10-18T06:49:12.321Z,101486.94
2018-10-18T06:51:44.265Z,101490.42
2018-10-18T06:54:16.491Z,101493.05
2018-10-18T06:56:49.155Z,101493.61
2018-10-18T06:59:21.186Z,101490.87
2018-10-18T07:01:53.768Z,101494.83
2018-10-18T07:04:25.695Z,101496.14
2018-10-18T07:06:57.484Z,101496.14
2018-10-18T07:09:30.181Z,101493.14
2018-10-18T07:12:02.564Z,101501.04
2018-10-18T07:14:34.502Z,101503.67
2018-10-18T07:17:08.672Z,101503.67
2018-10-18T07:19:42.953Z,101501.25
2018-10-18T07:22:14.895Z,101512.03
2018-10-18T07:24:47.717Z,101511.08
2018-10-18T07:27:20.345Z,101513.19
2018-10-18T07:29:58.676Z,101502.48
2018-10-18T07:32:31.129Z,101509.86
2018-10-18T07:35:03.140Z,101509.30
2018-10-18T07:37:35.327Z,101510.31
2018-10-18T07:40:08.214Z,101511.84
2018-10-18T07:42:45.128Z,101515.27
2018-10-18T07:45:19.149Z,101515.27
2018-10-18T07:47:54.766Z,101509.91
2018-10-18T07:50:27.481Z,101522.16
2018-10-18T07:52:59.716Z,101527.58
2018-10-18T07:55:31.852Z,101530.21
2018-10-18T07:58:03.939Z,101525.09
2018-10-18T08:00:36.128Z,101531.28
2018-10-18T08:03:08.053Z,101535.23
2018-10-18T08:05:39.894Z,101535.08
2018-10-18T08:08:12.333Z,101535.78
2018-10-18T08:10:45.649Z,101537.64
2018-10-18T08:13:17.865Z,101540.20
2018-10-18T08:16:01.929Z,101544.28
2018-10-18T08:18:34.307Z,101546.13
2018-10-18T08:21:07.089Z,101551.48
2018-10-18T08:23:39.633Z,101549.17
2018-10-18T08:26:12.663Z,101553.02
2018-10-18T08:28:45.352Z,101550.48
2018-10-18T08:31:18.805Z,101555.91
2018-10-18T08:33:50.898Z,101555.05
2018-10-18T08:36:23.536Z,101557.93
2018-10-18T08:38:55.895Z,101555.45
2018-10-18T08:41:28.565Z,101558.70
2018-10-18T08:44:03.320Z,101559.37
2018-10-18T08:46:35.522Z,101561.09
2018-10-18T08:49:09.652Z,101561.65
2018-10-18T08:51:42.108Z,101570.96
2018-10-18T08:54:15.664Z,101569.09
2018-10-18T08:56:48.547Z,101571.94
2018-10-18T08:59:29.044Z,101569.95
2018-10-18T09:02:01.671Z,101574.91
2018-10-18T09:04:36.794Z,101577.09
2018-10-18T09:07:12.443Z,101575.77
2018-10-18T09:09:44.450Z,101580.64
2018-10-18T09:12:16.546Z,101580.08
2018-10-18T09:14:52.660Z,101574.30
2018-10-18T09:17:24.950Z,101570.87
2018-10-18T09:19:57.115Z,101578.55
2018-10-18T09:22:29.937Z,101578.91
2018-10-18T09:25:04.500Z,101577.43
2018-10-18T09:27:36.528Z,101578.45
2018-10-18T09:30:10.551Z,101586.59
2018-10-18T09:32:43.230Z,101579.37
2018-10-18T09:35:27.033Z,101579.22
2018-10-18T09:38:01.490Z,101581.55
2018-10-18T09:40:42.851Z,101584.27
2018-10-18T09:43:16.397Z,101583.92
2018-10-18T09:45:49.850Z,101584.07
2018-10-18T09:48:22.190Z,101579.44
2018-10-18T09:50:57.118Z,101587.69
2018-10-18T09:53:33.232Z,101575.05
2018-10-18T09:56:10.178Z,101588.11
2018-10-18T09:58:42.489Z,101590.03
2018-10-18T10:01:37.585Z,101595.91
2018-10-18T10:04:12.270Z,101594.56
2018-10-18T10:06:49.498Z,101592.81
2018-10-18T10:09:20.579Z,101592.98
2018-10-18T10:11:54.243Z,101590.17
2018-10-18T10:14:25.026Z,101592.81
2018-10-18T10:16:57.952Z,101594.69
2018-10-18T10:19:29.857Z,101593.45
2018-10-18T10:22:08.396Z,101588.88
2018-10-18T10:24:44.030Z,101589.76
2018-10-18T10:27:16.973Z,101593.72
2018-10-18T10:29:49.779Z,101595.70
2018-10-18T10:32:25.033Z,101594.62
2018-10-18T10:35:03.326Z,101600.20
2018-10-18T10:37:50.625Z,101588.30
2018-10-18T10:40:26.559Z,101591.04
2018-10-18T10:43:00.855Z,101589.16
2018-10-18T10:45:34.375Z,101583.13
2018-10-18T10:48:08.173Z,101593.19
2018-10-18T10:50:43.087Z,101593.84
2018-10-18T10:53:21.996Z,101594.89
2018-10-18T10:55:57.357Z,101589.72
2018-10-18T10:58:41.011Z,101590.64
2018-10-18T11:01:19.074Z,101591.80
2018-10-18T11:03:53.950Z,101591.62
2018-10-18T11:06:26.463Z,101588.09
2018-10-18T11:09:00.649Z,101581.58
2018-10-18T11:11:37.989Z,101572.24
2018-10-18T11:14:09.881Z,101567.56
2018-10-18T11:19:22.092Z,101568.13
2018-10-18T11:21:57.473Z,101566.98
2018-10-18T11:24:36.333Z,101567.73
2018-10-18T11:27:07.504Z,101570.01
2018-10-18T11:29:40.805Z,101568.23
2018-10-18T11:32:31.201Z,101558.26
2018-10-18T11:35:06.956Z,101560.27
2018-10-18T11:37:41.065Z,101560.84
2018-10-18T11:40:19.344Z,101558.13
2018-10-18T11:42:57.803Z,101562.48
2018-10-18T11:45:41.996Z,101559.52
2018-10-18T11:48:28.813Z,101558.20
2018-10-18T11:51:26.197Z,101558.30
2018-10-18T11:53:58.632Z,101557.34
2018-10-18T11:56:32.622Z,101552.05
2018-10-18T11:59:14.775Z,101559.80
2018-10-18T12:02:16.640Z,101550.48
2018-10-18T12:04:51.740Z,101552.16
2018-10-18T12:07:23.924Z,101554.23
2018-10-18T12:09:56.681Z,101547.84
2018-10-18T12:12:36.066Z,101547.67
2018-10-18T12:15:15.162Z,101556.45
2018-10-18T12:17:52.290Z,101554.84
2018-10-18T12:20:24.188Z,101556.91
2018-10-18T12:23:01.258Z,101554.23
2018-10-18T12:25:34.124Z,101555.27
2018-10-18T12:28:10.030Z,101552.27
2018-10-18T12:30:47.681Z,101544.80
2018-10-18T12:33:18.036Z,101549.34
2018-10-18T12:35:50.698Z,101546.77
2018-10-18T12:38:27.608Z,101547.55
2018-10-18T12:41:02.529Z,101548.84
2018-10-18T12:43:47.633Z,101541.59
2018-10-18T12:46:20.651Z,101544.91
2018-10-18T12:48:58.873Z,101539.80
2018-10-18T12:51:34.748Z,101541.80
2018-10-18T12:54:10.505Z,101547.94
2018-10-18T12:56:42.235Z,101544.05
2018-10-18T12:59:16.790Z,101544.72
2018-10-18T13:01:51.639Z,101545.47
2018-10-18T13:04:30.999Z,101553.04
2018-10-18T13:07:06.034Z,101557.73
2018-10-18T13:09:40.877Z,101559.88
2018-10-18T13:12:18.939Z,101557.80
2018-10-18T13:14:57.281Z,101559.80
2018-10-18T13:17:37.462Z,101560.38
2018-10-18T13:20:14.648Z,101559.52
2018-10-18T13:22:49.256Z,101560.48
2018-10-18T13:25:22.505Z,101564.80
2018-10-18T13:28:02.957Z,101566.39
2018-10-18T13:30:45.830Z,101569.03
2018-10-18T13:33:19.574Z,101570.98
2018-10-18T13:36:03.816Z,101569.25
2018-10-18T13:38:42.174Z,101563.88
2018-10-18T13:41:17.370Z,101571.69
2018-10-18T13:43:54.691Z,101570.48
2018-10-18T13:58:42.374Z,101547.70
2018-10-18T14:10:30.660Z,101546.09
2018-10-18T14:26:12.152Z,101547.87
2018-10-18T14:36:49.481Z,101560.55
2018-10-18T14:54:43.987Z,101549.30
2018-10-18T15:33:37.755Z,101558.27
2018-10-18T15:37:44.340Z,101556.09
2018-10-18T15:55:54.428Z,101567.03
2018-10-18T16:01:39.073Z,101563.99
2018-10-18T16:08:31.741Z,101572.63
2018-10-18T16:11:40.480Z,101580.23
2018-10-18T16:36:15.801Z,101607.08
2018-10-18T17:12:48.734Z,101630.29
2018-10-18T17:50:22.175Z,101654.88
2018-10-18T18:01:51.552Z,101665.03
2018-10-18T18:04:59.399Z,101667.56
2018-10-18T18:07:30.758Z,101667.02
2018-10-18T18:10:02.140Z,101663.53
2018-10-18T18:12:33.544Z,101666.30
2018-10-18T18:15:04.923Z,101673.86
2018-10-18T18:17:37.180Z,101678.34
2018-10-18T18:20:10.825Z,101676.22
2018-10-18T18:22:42.305Z,101674.91
2018-10-18T18:25:15.621Z,101679.34
2018-10-18T18:27:47.060Z,101676.84
2018-10-18T18:30:20.817Z,101683.06
2018-10-18T18:32:52.259Z,101678.98
2018-10-18T18:35:23.627Z,101684.24
2018-10-18T18:37:55.253Z,101680.03
2018-10-18T18:40:27.116Z,101683.84
2018-10-18T18:43:04.115Z,101692.53
2018-10-18T18:45:36.810Z,101686.12
2018-10-18T18:48:09.899Z,101692.09
2018-10-18T18:50:44.426Z,101692.19
2018-10-18T18:53:18.190Z,101699.45
2018-10-18T18:55:49.421Z,101697.31
2018-10-18T18:58:20.761Z,101701.30
2018-10-18T19:00:52.573Z,101701.38
2018-10-18T19:03:24.482Z,101705.78
2018-10-18T19:05:56.111Z,101708.47
2018-10-18T19:08:28.017Z,101716.19
2018-10-18T19:10:59.700Z,101708.81
2018-10-18T19:13:31.127Z,101714.52
2018-10-18T19:16:02.420Z,101714.20
2018-10-18T19:18:35.493Z,101717.36
2018-10-18T19:21:07.772Z,101710.88
2018-10-18T19:23:42.052Z,101713.95
2018-10-18T19:26:13.553Z,101718.81
2018-10-18T19:28:44.868Z,101707.52
2018-10-18T19:31:16.174Z,101714.28
2018-10-18T19:33:47.477Z,101721.77
2018-10-18T19:36:19.879Z,101718.02
2018-10-18T19:38:51.227Z,101721.37
2018-10-18T19:41:22.497Z,101722.03
2018-10-18T19:43:53.888Z,101726.89
2018-10-18T19:46:25.911Z,101730.59
2018-10-18T19:49:00.603Z,101731.20
2018-10-18T19:51:38.246Z,101738.36
2018-10-18T19:54:10.969Z,101738.19
2018-10-18T19:56:43.674Z,101737.58
2018-10-18T19:59:15.659Z,101743.62
2018-10-18T20:01:50.837Z,101746.78
2018-10-18T20:04:22.282Z,101746.04
2018-10-18T20:06:54.889Z,101747.69
2018-10-18T20:09:26.286Z,101746.38
2018-10-18T20:12:00.751Z,101752.20
2018-10-18T20:14:33.482Z,101751.70
2018-10-18T20:17:08.288Z,101748.72
2018-10-18T20:19:42.966Z,101750.03
2018-10-18T20:22:15.204Z,101755.44
2018-10-18T20:24:46.707Z,101751.22
2018-10-18T20:27:19.140Z,101755.07
2018-10-18T20:29:51.654Z,101753.30
2018-10-18T20:32:25.045Z,101751.33
2018-10-18T20:34:58.325Z,101751.13
2018-10-18T20:37:32.379Z,101744.40
2018-10-18T20:40:07.579Z,101743.78
2018-10-18T20:42:39.139Z,101747.27
2018-10-18T20:45:25.829Z,101742.30
2018-10-18T20:47:59.913Z,101741.89
2018-10-18T20:50:33.793Z,101744.45
2018-10-18T20:53:06.148Z,101745.47
2018-10-18T20:55:39.948Z,101743.17
2018-10-18T20:58:14.555Z,101749.41
2018-10-18T21:00:47.397Z,101747.02
2018-10-18T21:03:21.184Z,101748.55
2018-10-18T21:05:52.544Z,101745.59
2018-10-18T21:08:25.602Z,101741.65
2018-10-18T21:10:59.013Z,101737.88
2018-10-18T21:13:31.813Z,101741.45
2018-10-18T21:16:05.420Z,101741.82
2018-10-18T21:18:38.473Z,101741.65
2018-10-18T21:21:11.959Z,101739.72
2018-10-18T21:23:44.947Z,101734.02
2018-10-18T21:26:17.790Z,101737.83
2018-10-18T21:28:51.976Z,101733.16
2018-10-18T21:31:25.196Z,101738.61
2018-10-18T21:33:59.287Z,101733.36
2018-10-18T21:36:32.499Z,101733.69
2018-10-18T21:39:06.885Z,101735.53
2018-10-18T21:41:39.864Z,101731.59
2018-10-18T21:44:12.765Z,101734.14
2018-10-18T21:46:45.607Z,101733.23
2018-10-18T21:49:19.019Z,101735.33
2018-10-18T21:51:52.231Z,101728.48
2018-10-18T21:54:25.626Z,101732.38
2018-10-18T21:56:58.921Z,101725.94
2018-10-18T21:59:32.760Z,101728.56
2018-10-18T22:02:05.599Z,101725.08
2018-10-18T22:04:38.850Z,101728.48
2018-10-18T22:07:12.035Z,101730.28
2018-10-18T22:09:45.235Z,101729.80
2018-10-18T22:12:18.844Z,101732.83
2018-10-18T22:14:52.913Z,101728.77
2018-10-18T22:17:26.359Z,101729.02
2018-10-18T22:19:59.681Z,101724.30
2018-10-18T22:22:33.056Z,101724.38
2018-10-18T22:25:06.333Z,101723.84
2018-10-18T22:27:42.605Z,101716.95
2018-10-18T22:30:15.737Z,101715.18
2018-10-18T22:32:48.911Z,101714.45
2018-10-18T22:35:21.798Z,101719.30
2018-10-18T22:37:55.363Z,101713.70
2018-10-18T22:40:28.517Z,101718.63
2018-10-18T22:43:01.594Z,101717.93
2018-10-18T22:45:34.740Z,101716.01
2018-10-18T22:48:08.320Z,101704.84
2018-10-18T22:50:41.396Z,101705.25
2018-10-18T22:53:14.897Z,101702.67
2018-10-18T22:55:47.819Z,101704.52
2018-10-18T22:58:22.857Z,101704.11
2018-10-18T23:00:57.051Z,101712.06
2018-10-18T23:03:30.543Z,101708.91
2018-10-18T23:06:03.797Z,101706.23
2018-10-18T23:08:36.808Z,101704.59
2018-10-18T23:11:10.010Z,101710.67
2018-10-18T23:13:43.023Z,101703.28
2018-10-18T23:16:16.179Z,101706.28
2018-10-18T23:18:49.661Z,101701.56
2018-10-18T23:21:23.990Z,101701.44
2018-10-18T23:23:57.503Z,101701.81
2018-10-18T23:26:30.474Z,101701.07
2018-10-18T23:29:03.627Z,101701.93
2018-10-18T23:31:37.538Z,101692.98
2018-10-18T23:34:10.821Z,101701.39
2018-10-18T23:36:43.880Z,101702.37
2018-10-18T23:39:16.990Z,101705.56
2018-10-18T23:41:50.194Z,101707.36
2018-10-18T23:44:23.459Z,101707.03
2018-10-18T23:46:56.913Z,101702.35
2018-10-18T23:49:30.013Z,101710.56
2018-10-18T23:52:02.729Z,101699.94
2018-10-18T23:54:35.984Z,101699.53
2018-10-18T23:57:08.408Z,101707.19
2018-10-18T23:59:41.301Z,101701.16
